默认 日期 大小 文件数 浏览量 最新下载 xml
pulled磁力链接相关资源由用户搜索指令自动获取,结果来源于网络,本站不存储任何资料,亦不承担任何责任,请于24小时内删除,搜索到245个磁力,用时0ms。
    {"oro-3wt.18.01.26.bopj[N1C].mp4": 1498726950}
创建时间: 2019-01-31 14:27:25 大小:1.4 GB 文件数量:1 热度:14 最近下载:2025-04-15 14:32:01
    {"01 - PWR.mp3": 6900716, "02 - Blue Jeans.mp3": 7685435, "11 - Motivation.mp3": 6955051, "04 - Spooky Wooky.mp3": 6521418, "08 - I Might As Well.mp3": 7571541, "03 - V.E.N.O.M (Demo).mp3": 7846349, "06 - Epic Myth (Demo).mp3": 9232929, " ...
创建时间: 2019-01-31 21:18:57 大小:99.74 MB 文件数量:16 热度:7 最近下载:2022-11-12 12:35:46
    {"The Big Bang Theory - S05E03 - The Pulled Groin Extrapolation - 720p HDTV x264 {$H@uN}.mkv": 198805932, "The Big Bang Theory - S05E03 - The Pulled Groin Extrapolation - 720p HDTV x264 {$H@uN}.srt": 28021}
创建时间: 2019-02-05 19:49:05 大小:189.62 MB 文件数量:2 热度:7 最近下载:2025-08-09 16:12:02
    {"trueamateurs.19.02.17.stella.big.ass.blonde.gets.face.fucked.and.hair.pulled[N1C].mp4": 865206626}
创建时间: 2019-02-20 12:47:26 大小:825.13 MB 文件数量:1 热度:7 最近下载:2025-03-12 05:28:02
    {"trueamateurs.19.02.17.stella.big.ass.blonde.gets.face.fucked.and.hair.pulled.mp4": 178396984}
创建时间: 2019-02-21 23:07:27 大小:170.13 MB 文件数量:1 热度:3 最近下载:2025-02-06 08:52:03
    {"Torrent downloaded from demonoid.pw.txt": 46, "Torrent Downloaded From ExtraTorrent.com.txt": 367, "Pulled & Smoked 25 Mind-Blowing Smoking Meat.tgz": 3458306}
创建时间: 2019-02-22 23:07:35 大小:3.3 MB 文件数量:3 热度:4 最近下载:2021-06-17 16:25:58
    {"RARBG.txt": 30, "RARBG_DO_NOT_MIRROR.exe": 99, "trueamateurs.19.02.17.stella.big.ass.blonde.gets.face.fucked.and.hair.pulled.mp4": 865206886, "trueamateurs.19.02.17.stella.big.ass.blonde.gets.face.fucked.and.hair.pulled.nfo": 5234}
创建时间: 2019-02-23 08:05:39 大小:825.13 MB 文件数量:4 热度:11 最近下载:2025-04-05 22:04:03
    {"RARBG.txt": 30, "RARBG_DO_NOT_MIRROR.exe": 99, "TrueAmateurs.19.02.17.Stella.Big.Ass.Blonde.Gets.Face.Fucked.And.Hair.Pulled.XXX.SD.MP4-KLEENEX.mp4": 174506225}
创建时间: 2019-02-25 16:55:07 大小:166.42 MB 文件数量:3 热度:5 最近下载:2025-01-31 11:30:02
    ... .chef.s07e07.the.secret.to.pulled.pork.internal.720p.web.x264 ... .chef.s07e07.the.secret.to.pulled.pork.internal.720p.web.x264 ...
创建时间: 2019-03-25 05:01:31 大小:480.13 MB 文件数量:8 热度:7 最近下载:2021-06-17 16:25:58
    {"Kaylee Sanchez looks so sweet in her lingerie, but with her hair pulled.mp4": 119569624}
创建时间: 2019-03-25 07:19:46 大小:114.03 MB 文件数量:1 热度:8 最近下载:2022-04-13 07:01:31
    {"Cover.jpg": 378183, "12. Downcast.mp3": 12198442, "05. Summoning.mp3": 6795276, "10. Hemmorage.mp3": 6944697, "08. Conscripted.mp3": 6768113, "06. Power Addict.mp3": 6218499, "09. Ritual Point.mp3": 6506890, "01. Chemical Burn.mp3": 5744117, "11. Incite ...
创建时间: 2019-03-30 08:07:10 大小:78.48 MB 文件数量:13 热度:6 最近下载:2021-06-17 16:25:58
    {"Jada Stevens likes fucking rough getting her hair pulled back while shes taking.mp4": 130585847}
创建时间: 2019-03-31 01:15:06 大小:124.54 MB 文件数量:1 热度:8 最近下载:2021-06-17 16:25:58
    ... .Gets.Face.Fucked.And.Hair.Pulled.mp4": 124889542}
创建时间: 2019-04-02 14:47:26 大小:119.84 MB 文件数量:8 热度:6 最近下载:2022-04-13 07:18:56
    {"poster.jpg": 42964, "screens.jpg": 202134, "GNDBondage.2015.08.22.Someone.Is.Knocking.At.My.Door.And.Im.In.Here.All.Taped.And.About.To.Get.My.Pantyhose.Pulled.Down.XXX.HR.MP4.hUSHhUSH.mp4": 385241481}
创建时间: 2019-05-08 12:49:26 大小:367.63 MB 文件数量:3 热度:14 最近下载:2025-09-29 14:39:02
    {"Gloryhole.cbr": 620046, "Pulled Over.cbr": 4888681, "_Read Me First.txt": 1392, "The Hotel Incident.cbr": 3184341, "_Uploaded by Almerias to Kickass Torrents (KAT), Pornleech and ExtraTorrent.png": 46189}
创建时间: 2019-05-24 00:45:12 大小:8.34 MB 文件数量:5 热度:6 最近下载:2025-09-18 20:38:05
    {"Readme.txt": 232, "lineage.txt": 131, "02 The Hollow Earth.flac": 27460408, "01 Feeling Pulled Apart by Horses.flac": 40726142}
创建时间: 2019-05-30 10:56:57 大小:65.03 MB 文件数量:4 热度:5 最近下载:2023-04-22 19:30:09
    ... .com.txt": 59, "11 I Pulled the Cover Off You Two ...
创建时间: 2019-06-11 06:19:25 大小:60.73 MB 文件数量:16 热度:3 最近下载:2021-06-17 16:25:58
    {"BabyGotBoobs - August Ames, Eva Lovia - Pulled Over Pussy.mp4": 352635048}
创建时间: 2019-06-18 14:54:05 大小:336.3 MB 文件数量:1 热度:12 最近下载:2025-09-19 23:21:05
    {"mum161pl.jpg": 179415, "MUM-161 Future Marriage ○○ Is Pulled.Wife J Students.And Out Child Making In Real. (All Wife Slippery).mp4": 882493297}
创建时间: 2019-06-18 17:14:33 大小:841.78 MB 文件数量:2 热度:37 最近下载:2025-09-29 10:27:04
    {"Pulled Apart By Horses-2014-Blood": {" ... , "12. Golden Monument.mp3": 12051455}, "Pulled Apart By Horses-2012-Tough ... People).mp3": 9334384}, "Pulled Apart By Horses-2010-Pulled Apart By Horses ...
创建时间: 2019-06-19 23:27:25 大小:251.78 MB 文件数量:37 热度:14 最近下载:2024-12-03 19:40:03